sensor_id;sensor_type;location;lat;lon;timestamp;pressure;altitude;pressure_sealevel;temperature;humidity
41040;BME280;48586;50.122;18.972;2023-02-25T00:00:26;96417.41;;;5.34;100.00
41040;BME280;48586;50.122;18.972;2023-02-25T00:02:33;96409.69;;;5.27;100.00
41040;BME280;48586;50.122;18.972;2023-02-25T00:04:39;96396.97;;;5.19;100.00
41040;BME280;48586;50.122;18.972;2023-02-25T00:06:45;96387.41;;;5.18;100.00
41040;BME280;48586;50.122;18.972;2023-02-25T00:08:51;96387.38;;;5.13;100.00
41040;BME280;48586;50.122;18.972;2023-02-25T00:10:58;96382.84;;;5.08;100.00
41040;BME280;48586;50.122;18.972;2023-02-25T00:13:04;96383.34;;;5.05;100.00
41040;BME280;48586;50.122;18.972;2023-02-25T00:15:11;96375.41;;;5.05;100.00
41040;BME280;48586;50.122;18.972;2023-02-25T00:17:17;96372.56;;;5.07;100.00
41040;BME280;48586;50.122;18.972;2023-02-25T00:19:23;96372.03;;;5.10;100.00
41040;BME280;48586;50.122;18.972;2023-02-25T00:21:28;96370.75;;;5.12;100.00
41040;BME280;48586;50.122;18.972;2023-02-25T00:23:34;96360.72;;;5.14;100.00
41040;BME280;48586;50.122;18.972;2023-02-25T00:25:38;96366.00;;;5.14;100.00
41040;BME280;48586;50.122;18.972;2023-02-25T00:27:44;96360.00;;;5.19;100.00
41040;BME280;48586;50.122;18.972;2023-02-25T00:29:50;96356.06;;;5.21;100.00
41040;BME280;48586;50.122;18.972;2023-02-25T00:31:58;96351.34;;;5.23;100.00
41040;BME280;48586;50.122;18.972;2023-02-25T00:34:04;96335.69;;;5.17;100.00
41040;BME280;48586;50.122;18.972;2023-02-25T00:36:12;96346.84;;;5.24;100.00
41040;BME280;48586;50.122;18.972;2023-02-25T00:38:20;96354.25;;;5.27;100.00
41040;BME280;48586;50.122;18.972;2023-02-25T00:40:26;96347.94;;;5.28;100.00
41040;BME280;48586;50.122;18.972;2023-02-25T00:42:31;96355.06;;;5.28;100.00
41040;BME280;48586;50.122;18.972;2023-02-25T00:44:36;96347.69;;;5.30;100.00
41040;BME280;48586;50.122;18.972;2023-02-25T00:46:41;96347.72;;;5.35;100.00
41040;BME280;48586;50.122;18.972;2023-02-25T00:48:49;96342.44;;;5.35;100.00
41040;BME280;48586;50.122;18.972;2023-02-25T00:50:56;96335.09;;;5.37;100.00
41040;BME280;48586;50.122;18.972;2023-02-25T00:53:00;96321.31;;;5.35;100.00
41040;BME280;48586;50.122;18.972;2023-02-25T00:55:06;96318.72;;;5.40;100.00
41040;BME280;48586;50.122;18.972;2023-02-25T00:57:13;96312.69;;;5.44;100.00
41040;BME280;48586;50.122;18.972;2023-02-25T00:59:17;96304.03;;;5.49;100.00
41040;BME280;48586;50.122;18.972;2023-02-25T01:01:26;96290.28;;;5.52;100.00
41040;BME280;48586;50.122;18.972;2023-02-25T01:03:34;96293.56;;;5.59;100.00
41040;BME280;48586;50.122;18.972;2023-02-25T01:05:42;96285.13;;;5.62;100.00
41040;BME280;48586;50.122;18.972;2023-02-25T01:07:50;96285.41;;;5.66;100.00
41040;BME280;48586;50.122;18.972;2023-02-25T01:09:56;96273.81;;;5.67;100.00
41040;BME280;48586;50.122;18.972;2023-02-25T01:12:01;96284.09;;;5.68;100.00
41040;BME280;48586;50.122;18.972;2023-02-25T01:14:11;96280.41;;;5.69;100.00
41040;BME280;48586;50.122;18.972;2023-02-25T01:16:20;96280.16;;;5.71;100.00
41040;BME280;48586;50.122;18.972;2023-02-25T01:18:27;96275.69;;;5.71;100.00
41040;BME280;48586;50.122;18.972;2023-02-25T01:20:36;96281.47;;;5.73;100.00
41040;BME280;48586;50.122;18.972;2023-02-25T01:22:45;96277.28;;;5.78;100.00
41040;BME280;48586;50.122;18.972;2023-02-25T01:24:49;96282.56;;;5.78;100.00
41040;BME280;48586;50.122;18.972;2023-02-25T01:26:57;96280.13;;;5.66;100.00
41040;BME280;48586;50.122;18.972;2023-02-25T01:29:05;96288.31;;;5.64;100.00
41040;BME280;48586;50.122;18.972;2023-02-25T01:31:16;96286.09;;;5.56;100.00
41040;BME280;48586;50.122;18.972;2023-02-25T01:33:25;96282.91;;;5.49;100.00
41040;BME280;48586;50.122;18.972;2023-02-25T01:35:29;96281.56;;;5.46;100.00
41040;BME280;48586;50.122;18.972;2023-02-25T01:37:35;96281.56;;;5.46;100.00
41040;BME280;48586;50.122;18.972;2023-02-25T01:39:43;96271.25;;;5.45;100.00
41040;BME280;48586;50.122;18.972;2023-02-25T01:41:49;96265.91;;;5.40;100.00
41040;BME280;48586;50.122;18.972;2023-02-25T01:44:08;96273.34;;;5.43;100.00
41040;BME280;48586;50.122;18.972;2023-02-25T01:46:15;96281.56;;;5.46;100.00
41040;BME280;48586;50.122;18.972;2023-02-25T01:48:24;96277.34;;;5.50;100.00
41040;BME280;48586;50.122;18.972;2023-02-25T01:50:39;96283.72;;;5.55;100.00
41040;BME280;48586;50.122;18.972;2023-02-25T01:52:50;96288.28;;;5.59;100.00
41040;BME280;48586;50.122;18.972;2023-02-25T01:54:59;96286.94;;;5.62;100.00
41040;BME280;48586;50.122;18.972;2023-02-25T01:57:09;96283.03;;;5.64;100.00
41040;BME280;48586;50.122;18.972;2023-02-25T01:59:20;96281.16;;;5.65;100.00
41040;BME280;48586;50.122;18.972;2023-02-25T02:01:32;96290.66;;;5.61;100.00
41040;BME280;48586;50.122;18.972;2023-02-25T02:03:42;96289.84;;;5.60;100.00
41040;BME280;48586;50.122;18.972;2023-02-25T02:06:00;96293.06;;;5.62;100.00
41040;BME280;48586;50.122;18.972;2023-02-25T02:08:10;96284.38;;;5.67;100.00
41040;BME280;48586;50.122;18.972;2023-02-25T02:10:18;96273.81;;;5.72;100.00
41040;BME280;48586;50.122;18.972;2023-02-25T02:12:29;96276.19;;;5.73;100.00
41040;BME280;48586;50.122;18.972;2023-02-25T02:14:40;96267.47;;;5.73;100.00
41040;BME280;48586;50.122;18.972;2023-02-25T02:17:04;96267.75;;;5.71;100.00
41040;BME280;48586;50.122;18.972;2023-02-25T02:19:30;96265.09;;;5.71;100.00
41040;BME280;48586;50.122;18.972;2023-02-25T02:21:54;96272.75;;;5.68;100.00
41040;BME280;48586;50.122;18.972;2023-02-25T02:27:12;96290.19;;;5.69;99.73
41040;BME280;48586;50.122;18.972;2023-02-25T02:32:29;96281.16;;;5.65;99.16
41040;BME280;48586;50.122;18.972;2023-02-25T02:34:47;96281.47;;;5.68;98.67
41040;BME280;48586;50.122;18.972;2023-02-25T02:37:11;96273.81;;;5.67;96.40
41040;BME280;48586;50.122;18.972;2023-02-25T02:39:46;96270.91;;;5.68;96.41
41040;BME280;48586;50.122;18.972;2023-02-25T02:42:07;96274.31;;;5.69;94.87
41040;BME280;48586;50.122;18.972;2023-02-25T02:44:28;96274.88;;;5.71;95.49
41040;BME280;48586;50.122;18.972;2023-02-25T02:46:44;96272.50;;;5.74;94.91
41040;BME280;48586;50.122;18.972;2023-02-25T02:49:04;96283.63;;;5.77;92.93
41040;BME280;48586;50.122;18.972;2023-02-25T02:51:18;96280.13;;;5.66;91.77
41040;BME280;48586;50.122;18.972;2023-02-25T02:53:32;96285.63;;;5.59;91.12
41040;BME280;48586;50.122;18.972;2023-02-25T02:55:43;96287.09;;;5.45;90.35
41040;BME280;48586;50.122;18.972;2023-02-25T02:58:02;96307.88;;;5.36;89.34
41040;BME280;48586;50.122;18.972;2023-02-25T03:00:16;96310.13;;;5.22;88.26
41040;BME280;48586;50.122;18.972;2023-02-25T03:02:32;96317.13;;;5.07;88.30
41040;BME280;48586;50.122;18.972;2023-02-25T03:04:45;96319.38;;;4.93;88.83
41040;BME280;48586;50.122;18.972;2023-02-25T03:07:02;96306.03;;;4.78;88.90
41040;BME280;48586;50.122;18.972;2023-02-25T03:09:13;96327.03;;;4.67;87.76
41040;BME280;48586;50.122;18.972;2023-02-25T03:11:24;96335.81;;;4.51;88.13
41040;BME280;48586;50.122;18.972;2023-02-25T03:13:28;96342.00;;;4.40;88.42
41040;BME280;48586;50.122;18.972;2023-02-25T03:15:34;96333.41;;;4.28;88.83
41040;BME280;48586;50.122;18.972;2023-02-25T03:17:45;96338.03;;;4.15;88.90
41040;BME280;48586;50.122;18.972;2023-02-25T03:20:05;96347.06;;;4.03;89.73
41040;BME280;48586;50.122;18.972;2023-02-25T03:22:19;96348.69;;;3.87;90.12
41040;BME280;48586;50.122;18.972;2023-02-25T03:24:34;96350.94;;;3.78;91.36
41040;BME280;48586;50.122;18.972;2023-02-25T03:26:45;96357.78;;;3.62;91.81
41040;BME280;48586;50.122;18.972;2023-02-25T03:28:51;96363.44;;;3.54;93.02
41040;BME280;48586;50.122;18.972;2023-02-25T03:31:02;96360.19;;;3.47;93.78
41040;BME280;48586;50.122;18.972;2023-02-25T03:33:20;96367.38;;;3.35;97.45
41040;BME280;48586;50.122;18.972;2023-02-25T03:35:34;96374.28;;;3.24;96.24
41040;BME280;48586;50.122;18.972;2023-02-25T03:37:46;96363.22;;;3.10;95.60
41040;BME280;48586;50.122;18.972;2023-02-25T03:40:00;96363.28;;;2.98;96.32
41040;BME280;48586;50.122;18.972;2023-02-25T03:42:17;96373.72;;;2.93;97.12
41040;BME280;48586;50.122;18.972;2023-02-25T03:44:30;96385.00;;;2.77;98.67
41040;BME280;48586;50.122;18.972;2023-02-25T03:46:42;96389.16;;;2.61;100.00
41040;BME280;48586;50.122;18.972;2023-02-25T03:48:49;96388.81;;;2.58;100.00
41040;BME280;48586;50.122;18.972;2023-02-25T03:51:01;96392.59;;;2.50;100.00
41040;BME280;48586;50.122;18.972;2023-02-25T03:53:11;96392.75;;;2.43;100.00
41040;BME280;48586;50.122;18.972;2023-02-25T03:55:24;96390.91;;;2.44;100.00
41040;BME280;48586;50.122;18.972;2023-02-25T03:57:35;96403.38;;;2.37;100.00
41040;BME280;48586;50.122;18.972;2023-02-25T03:59:42;96396.53;;;2.36;100.00
41040;BME280;48586;50.122;18.972;2023-02-25T04:01:50;96393.19;;;2.40;100.00
41040;BME280;48586;50.122;18.972;2023-02-25T04:03:57;96379.50;;;2.38;100.00
41040;BME280;48586;50.122;18.972;2023-02-25T04:06:04;96385.91;;;2.42;100.00
41040;BME280;48586;50.122;18.972;2023-02-25T04:08:09;96393.09;;;2.47;100.00
41040;BME280;48586;50.122;18.972;2023-02-25T04:10:19;96392.03;;;2.48;100.00
41040;BME280;48586;50.122;18.972;2023-02-25T04:12:24;96390.56;;;2.52;100.00
41040;BME280;48586;50.122;18.972;2023-02-25T04:14:28;96387.22;;;2.57;100.00
41040;BME280;48586;50.122;18.972;2023-02-25T04:16:32;96391.78;;;2.61;100.00
41040;BME280;48586;50.122;18.972;2023-02-25T04:18:38;96384.31;;;2.70;100.00
41040;BME280;48586;50.122;18.972;2023-02-25T04:20:42;96378.91;;;2.77;100.00
41040;BME280;48586;50.122;18.972;2023-02-25T04:22:49;96381.97;;;2.85;100.00
41040;BME280;48586;50.122;18.972;2023-02-25T04:24:54;96369.66;;;2.86;99.00
41040;BME280;48586;50.122;18.972;2023-02-25T04:26:58;96368.13;;;2.90;99.46
41040;BME280;48586;50.122;18.972;2023-02-25T04:29:03;96369.41;;;2.87;97.78
41040;BME280;48586;50.122;18.972;2023-02-25T04:31:07;96375.47;;;2.88;97.93
41040;BME280;48586;50.122;18.972;2023-02-25T04:33:12;96372.28;;;2.86;96.91
41040;BME280;48586;50.122;18.972;2023-02-25T04:35:16;96374.09;;;2.85;97.24
41040;BME280;48586;50.122;18.972;2023-02-25T04:37:21;96378.00;;;2.83;97.25
41040;BME280;48586;50.122;18.972;2023-02-25T04:39:27;96377.91;;;2.78;96.67
41040;BME280;48586;50.122;18.972;2023-02-25T04:41:33;96374.69;;;2.76;96.70
41040;BME280;48586;50.122;18.972;2023-02-25T04:43:39;96374.38;;;2.72;96.40
41040;BME280;48586;50.122;18.972;2023-02-25T04:45:45;96381.47;;;2.71;96.81
41040;BME280;48586;50.122;18.972;2023-02-25T04:47:50;96381.38;;;2.66;96.33
41040;BME280;48586;50.122;18.972;2023-02-25T04:49:58;96386.06;;;2.64;96.58
41040;BME280;48586;50.122;18.972;2023-02-25T04:52:02;96381.59;;;2.65;96.95
41040;BME280;48586;50.122;18.972;2023-02-25T04:54:06;96391.31;;;2.64;97.37
41040;BME280;48586;50.122;18.972;2023-02-25T04:56:15;96382.84;;;2.62;97.31
41040;BME280;48586;50.122;18.972;2023-02-25T04:58:19;96385.50;;;2.62;97.71
41040;BME280;48586;50.122;18.972;2023-02-25T05:00:23;96397.84;;;2.62;97.79
41040;BME280;48586;50.122;18.972;2023-02-25T05:02:31;96379.34;;;2.57;98.03
41040;BME280;48586;50.122;18.972;2023-02-25T05:04:36;96379.34;;;2.57;98.40
41040;BME280;48586;50.122;18.972;2023-02-25T05:06:41;96382.75;;;2.57;98.11
41040;BME280;48586;50.122;18.972;2023-02-25T05:08:46;96376.72;;;2.57;98.40
41040;BME280;48586;50.122;18.972;2023-02-25T05:10:51;96374.88;;;2.57;98.04
41040;BME280;48586;50.122;18.972;2023-02-25T05:12:57;96377.16;;;2.54;98.37
41040;BME280;48586;50.122;18.972;2023-02-25T05:15:03;96377.50;;;2.57;98.63
41040;BME280;48586;50.122;18.972;2023-02-25T05:17:08;96382.75;;;2.57;98.28
41040;BME280;48586;50.122;18.972;2023-02-25T05:19:14;96391.78;;;2.61;98.28
41040;BME280;48586;50.122;18.972;2023-02-25T05:21:25;96394.75;;;2.65;98.82
41040;BME280;48586;50.122;18.972;2023-02-25T05:23:29;96400.56;;;2.67;98.36
41040;BME280;48586;50.122;18.972;2023-02-25T05:25:33;96407.66;;;2.66;98.14
41040;BME280;48586;50.122;18.972;2023-02-25T05:27:42;96405.47;;;2.63;98.69
41040;BME280;48586;50.122;18.972;2023-02-25T05:29:48;96417.81;;;2.63;98.23
41040;BME280;48586;50.122;18.972;2023-02-25T05:31:54;96410.19;;;2.61;98.66
41040;BME280;48586;50.122;18.972;2023-02-25T05:33:59;96410.41;;;2.60;98.68
41040;BME280;48586;50.122;18.972;2023-02-25T05:36:05;96410.19;;;2.61;98.86
41040;BME280;48586;50.122;18.972;2023-02-25T05:38:09;96415.06;;;2.69;99.73
41040;BME280;48586;50.122;18.972;2023-02-25T05:40:14;96411.16;;;2.72;98.61
41040;BME280;48586;50.122;18.972;2023-02-25T05:42:19;96404.31;;;2.71;98.34
41040;BME280;48586;50.122;18.972;2023-02-25T05:44:23;96410.28;;;2.66;97.78
41040;BME280;48586;50.122;18.972;2023-02-25T05:46:31;96405.47;;;2.63;97.76
41040;BME280;48586;50.122;18.972;2023-02-25T05:48:35;96403.44;;;2.65;98.13
41040;BME280;48586;50.122;18.972;2023-02-25T05:50:39;96396.09;;;2.67;97.84
41040;BME280;48586;50.122;18.972;2023-02-25T05:52:44;96403.53;;;2.70;98.46
41040;BME280;48586;50.122;18.972;2023-02-25T05:54:48;96405.22;;;2.77;98.06
41040;BME280;48586;50.122;18.972;2023-02-25T05:56:52;96405.69;;;2.73;97.20
41040;BME280;48586;50.122;18.972;2023-02-25T05:58:57;96404.31;;;2.71;96.97
41040;BME280;48586;50.122;18.972;2023-02-25T06:01:05;96403.53;;;2.70;97.22
41040;BME280;48586;50.122;18.972;2023-02-25T06:03:16;96395.41;;;2.72;97.58
41040;BME280;48586;50.122;18.972;2023-02-25T06:05:21;96397.09;;;2.78;97.81
41040;BME280;48586;50.122;18.972;2023-02-25T06:07:28;96398.44;;;2.81;97.23
41040;BME280;48586;50.122;18.972;2023-02-25T06:09:33;96400.38;;;2.85;97.17
41040;BME280;48586;50.122;18.972;2023-02-25T06:11:37;96400.88;;;2.82;97.01
41040;BME280;48586;50.122;18.972;2023-02-25T06:13:41;96404.84;;;2.85;97.02
41040;BME280;48586;50.122;18.972;2023-02-25T06:15:45;96401.66;;;2.83;96.44
41040;BME280;48586;50.122;18.972;2023-02-25T06:17:51;96403.34;;;2.89;96.85
41040;BME280;48586;50.122;18.972;2023-02-25T06:19:58;96393.75;;;2.94;96.81
41040;BME280;48586;50.122;18.972;2023-02-25T06:22:02;96402.97;;;2.97;95.91
41040;BME280;48586;50.122;18.972;2023-02-25T06:24:07;96396.38;;;2.94;95.53
41040;BME280;48586;50.122;18.972;2023-02-25T06:26:13;96398.28;;;2.99;95.60
41040;BME280;48586;50.122;18.972;2023-02-25T06:28:17;96390.94;;;3.01;95.46
41040;BME280;48586;50.122;18.972;2023-02-25T06:30:22;96400.75;;;3.06;95.37
41040;BME280;48586;50.122;18.972;2023-02-25T06:32:27;96406.81;;;3.06;95.10
41040;BME280;48586;50.122;18.972;2023-02-25T06:34:31;96416.09;;;3.09;95.13
41040;BME280;48586;50.122;18.972;2023-02-25T06:36:38;96416.88;;;3.09;95.15
41040;BME280;48586;50.122;18.972;2023-02-25T06:38:42;96416.34;;;3.07;94.81
41040;BME280;48586;50.122;18.972;2023-02-25T06:40:48;96422.59;;;3.06;94.31
41040;BME280;48586;50.122;18.972;2023-02-25T06:42:54;96421.25;;;3.04;94.60
41040;BME280;48586;50.122;18.972;2023-02-25T06:44:58;96420.47;;;3.03;94.33
41040;BME280;48586;50.122;18.972;2023-02-25T06:47:02;96422.38;;;3.08;94.77
41040;BME280;48586;50.122;18.972;2023-02-25T06:49:07;96422.94;;;3.10;93.18
41040;BME280;48586;50.122;18.972;2023-02-25T06:51:11;96424.22;;;3.07;92.91
41040;BME280;48586;50.122;18.972;2023-02-25T06:53:17;96419.25;;;3.11;92.88
41040;BME280;48586;50.122;18.972;2023-02-25T06:55:23;96421.47;;;3.14;93.11
41040;BME280;48586;50.122;18.972;2023-02-25T06:57:27;96417.56;;;3.16;93.35
41040;BME280;48586;50.122;18.972;2023-02-25T06:59:31;96415.81;;;3.22;92.79
41040;BME280;48586;50.122;18.972;2023-02-25T07:01:37;96418.78;;;3.26;91.94
41040;BME280;48586;50.122;18.972;2023-02-25T07:03:41;96419.72;;;3.19;90.80
41040;BME280;48586;50.122;18.972;2023-02-25T07:05:46;96423.00;;;3.27;91.43
41040;BME280;48586;50.122;18.972;2023-02-25T07:07:51;96426.34;;;3.22;89.33
41040;BME280;48586;50.122;18.972;2023-02-25T07:09:57;96425.56;;;3.21;89.39
41040;BME280;48586;50.122;18.972;2023-02-25T07:12:01;96417.19;;;3.25;90.50
41040;BME280;48586;50.122;18.972;2023-02-25T07:14:06;96420.84;;;3.23;88.76
41040;BME280;48586;50.122;18.972;2023-02-25T07:16:13;96431.63;;;3.22;88.29
41040;BME280;48586;50.122;18.972;2023-02-25T07:18:20;96426.44;;;3.27;87.82
41040;BME280;48586;50.122;18.972;2023-02-25T07:20:25;96426.44;;;3.27;87.78
41040;BME280;48586;50.122;18.972;2023-02-25T07:22:29;96429.44;;;3.19;87.20
41040;BME280;48586;50.122;18.972;2023-02-25T07:24:33;96426.59;;;3.20;88.04
41040;BME280;48586;50.122;18.972;2023-02-25T07:26:40;96425.56;;;3.21;87.20
41040;BME280;48586;50.122;18.972;2023-02-25T07:28:44;96432.06;;;3.19;87.64
41040;BME280;48586;50.122;18.972;2023-02-25T07:30:48;96427.94;;;3.23;88.33
41040;BME280;48586;50.122;18.972;2023-02-25T07:32:53;96443.19;;;3.21;88.28
41040;BME280;48586;50.122;18.972;2023-02-25T07:34:57;96430.81;;;3.21;88.64
41040;BME280;48586;50.122;18.972;2023-02-25T07:37:01;96430.03;;;3.21;88.05
41040;BME280;48586;50.122;18.972;2023-02-25T07:39:09;96431.53;;;3.05;87.03
41040;BME280;48586;50.122;18.972;2023-02-25T07:41:17;96426.97;;;3.01;87.49
41040;BME280;48586;50.122;18.972;2023-02-25T07:43:25;96438.19;;;2.96;87.79
41040;BME280;48586;50.122;18.972;2023-02-25T07:45:30;96434.06;;;3.00;88.29
41040;BME280;48586;50.122;18.972;2023-02-25T07:47:34;96431.19;;;3.02;88.90
41040;BME280;48586;50.122;18.972;2023-02-25T07:49:38;96438.88;;;3.03;89.08
41040;BME280;48586;50.122;18.972;2023-02-25T07:51:43;96432.59;;;2.92;87.83
41040;BME280;48586;50.122;18.972;2023-02-25T07:53:49;96429.88;;;2.87;87.87
41040;BME280;48586;50.122;18.972;2023-02-25T07:55:53;96428.94;;;2.93;88.37
41040;BME280;48586;50.122;18.972;2023-02-25T07:57:58;96429.16;;;3.04;88.55
41040;BME280;48586;50.122;18.972;2023-02-25T08:00:06;96425.94;;;3.02;86.88
41040;BME280;48586;50.122;18.972;2023-02-25T08:02:15;96421.00;;;3.05;86.92
41040;BME280;48586;50.122;18.972;2023-02-25T08:04:19;96423.09;;;3.03;87.01
41040;BME280;48586;50.122;18.972;2023-02-25T08:06:25;96429.38;;;3.02;86.70
41040;BME280;48586;50.122;18.972;2023-02-25T08:08:29;96422.38;;;3.08;88.25
41040;BME280;48586;50.122;18.972;2023-02-25T08:10:35;96438.38;;;3.06;86.38
41040;BME280;48586;50.122;18.972;2023-02-25T08:12:40;96420.91;;;3.12;85.99
41040;BME280;48586;50.122;18.972;2023-02-25T08:14:44;96432.66;;;3.09;85.89
41040;BME280;48586;50.122;18.972;2023-02-25T08:16:54;96422.25;;;3.14;87.11
41040;BME280;48586;50.122;18.972;2023-02-25T08:19:01;96441.31;;;3.33;85.42
41040;BME280;48586;50.122;18.972;2023-02-25T08:21:06;96423.50;;;3.40;85.48
41040;BME280;48586;50.122;18.972;2023-02-25T08:23:11;96427.13;;;3.51;85.09
41040;BME280;48586;50.122;18.972;2023-02-25T08:25:15;96427.69;;;3.53;83.98
41040;BME280;48586;50.122;18.972;2023-02-25T08:27:20;96431.03;;;3.65;81.46
41040;BME280;48586;50.122;18.972;2023-02-25T08:29:24;96430.88;;;3.55;80.91
41040;BME280;48586;50.122;18.972;2023-02-25T08:31:29;96426.09;;;3.69;81.86
41040;BME280;48586;50.122;18.972;2023-02-25T08:33:36;96431.19;;;3.76;81.59
41040;BME280;48586;50.122;18.972;2023-02-25T08:35:43;96427.44;;;3.88;81.39
41040;BME280;48586;50.122;18.972;2023-02-25T08:37:47;96430.72;;;3.95;81.08
41040;BME280;48586;50.122;18.972;2023-02-25T08:39:53;96432.38;;;4.02;80.22
41040;BME280;48586;50.122;18.972;2023-02-25T08:41:59;96442.53;;;4.10;80.35
41040;BME280;48586;50.122;18.972;2023-02-25T08:44:03;96442.84;;;4.13;79.74
41040;BME280;48586;50.122;18.972;2023-02-25T08:46:10;96444.44;;;4.14;78.00
41040;BME280;48586;50.122;18.972;2023-02-25T08:48:16;96441.56;;;4.16;78.26
41040;BME280;48586;50.122;18.972;2023-02-25T08:50:23;96443.25;;;4.22;78.23
41040;BME280;48586;50.122;18.972;2023-02-25T08:52:27;96441.25;;;4.29;77.03
41040;BME280;48586;50.122;18.972;2023-02-25T08:54:34;96440.44;;;4.29;71.83
41040;BME280;48586;50.122;18.972;2023-02-25T08:56:39;96437.00;;;4.28;71.94
41040;BME280;48586;50.122;18.972;2023-02-25T08:58:44;96441.00;;;4.31;73.63
41040;BME280;48586;50.122;18.972;2023-02-25T09:00:49;96436.34;;;4.38;72.26
41040;BME280;48586;50.122;18.972;2023-02-25T09:02:54;96441.06;;;4.36;71.81
41040;BME280;48586;50.122;18.972;2023-02-25T09:04:59;96440.81;;;4.37;70.19
41040;BME280;48586;50.122;18.972;2023-02-25T09:07:08;96442.19;;;4.23;68.84
41040;BME280;48586;50.122;18.972;2023-02-25T09:09:16;96470.97;;;4.24;69.44
41040;BME280;48586;50.122;18.972;2023-02-25T09:11:24;96448.03;;;4.08;66.97
41040;BME280;48586;50.122;18.972;2023-02-25T09:13:29;96448.84;;;4.09;67.41
41040;BME280;48586;50.122;18.972;2023-02-25T09:15:33;96441.81;;;4.14;68.47
41040;BME280;48586;50.122;18.972;2023-02-25T09:17:38;96437.25;;;4.27;67.73
41040;BME280;48586;50.122;18.972;2023-02-25T09:19:43;96464.63;;;4.26;66.86
41040;BME280;48586;50.122;18.972;2023-02-25T09:21:48;96450.81;;;4.18;65.68
41040;BME280;48586;50.122;18.972;2023-02-25T09:23:55;96435.66;;;4.09;64.52
41040;BME280;48586;50.122;18.972;2023-02-25T09:26:03;96448.13;;;4.13;65.23
41040;BME280;48586;50.122;18.972;2023-02-25T09:28:10;96443.63;;;4.14;65.89
41040;BME280;48586;50.122;18.972;2023-02-25T09:30:15;96449.38;;;4.11;64.59
41040;BME280;48586;50.122;18.972;2023-02-25T09:32:20;96448.03;;;4.08;65.59
41040;BME280;48586;50.122;18.972;2023-02-25T09:34:25;96444.84;;;4.06;65.70
41040;BME280;48586;50.122;18.972;2023-02-25T09:36:31;96468.16;;;4.14;65.87
41040;BME280;48586;50.122;18.972;2023-02-25T09:38:38;96446.66;;;4.22;65.60
41040;BME280;48586;50.122;18.972;2023-02-25T09:40:48;96451.53;;;4.31;64.76
41040;BME280;48586;50.122;18.972;2023-02-25T09:43:04;96439.00;;;4.38;65.31
41040;BME280;48586;50.122;18.972;2023-02-25T09:45:23;96444.81;;;4.40;64.61
41040;BME280;48586;50.122;18.972;2023-02-25T09:47:35;96433.66;;;4.33;63.87
41040;BME280;48586;50.122;18.972;2023-02-25T09:49:51;96439.66;;;4.28;63.90
41040;BME280;48586;50.122;18.972;2023-02-25T09:52:06;96438.47;;;4.41;64.35
41040;BME280;48586;50.122;18.972;2023-02-25T09:54:22;96436.16;;;4.44;64.22
41040;BME280;48586;50.122;18.972;2023-02-25T09:56:34;96464.19;;;4.12;63.86
41040;BME280;48586;50.122;18.972;2023-02-25T09:58:43;96440.22;;;4.13;65.06
41040;BME280;48586;50.122;18.972;2023-02-25T10:01:00;96446.75;;;4.11;66.53
41040;BME280;48586;50.122;18.972;2023-02-25T10:03:17;96448.38;;;4.12;66.51
41040;BME280;48586;50.122;18.972;2023-02-25T10:05:41;96438.56;;;3.90;65.84
41040;BME280;48586;50.122;18.972;2023-02-25T10:07:59;96436.00;;;3.95;67.19
41040;BME280;48586;50.122;18.972;2023-02-25T10:10:20;96446.78;;;3.77;66.54
41040;BME280;48586;50.122;18.972;2023-02-25T10:12:43;96455.31;;;3.84;66.75
41040;BME280;48586;50.122;18.972;2023-02-25T10:15:16;96447.09;;;3.81;67.06
41040;BME280;48586;50.122;18.972;2023-02-25T10:17:39;96457.72;;;3.86;67.70
41040;BME280;48586;50.122;18.972;2023-02-25T10:20:25;96459.53;;;3.68;67.43
41040;BME280;48586;50.122;18.972;2023-02-25T10:22:50;96462.63;;;3.65;68.27
41040;BME280;48586;50.122;18.972;2023-02-25T10:25:10;96451.38;;;3.53;68.50
41040;BME280;48586;50.122;18.972;2023-02-25T10:27:20;96454.66;;;3.60;69.29
41040;BME280;48586;50.122;18.972;2023-02-25T10:29:39;96470.63;;;3.70;70.06
41040;BME280;48586;50.122;18.972;2023-02-25T10:31:55;96472.53;;;3.75;70.09
41040;BME280;48586;50.122;18.972;2023-02-25T10:34:19;96463.59;;;3.59;70.43
41040;BME280;48586;50.122;18.972;2023-02-25T10:36:29;96453.06;;;3.59;72.50
41040;BME280;48586;50.122;18.972;2023-02-25T10:38:41;96473.50;;;3.40;75.37
41040;BME280;48586;50.122;18.972;2023-02-25T10:40:46;96488.13;;;3.19;77.28
41040;BME280;48586;50.122;18.972;2023-02-25T10:42:53;96465.03;;;3.10;78.94
41040;BME280;48586;50.122;18.972;2023-02-25T10:45:09;96472.50;;;3.01;81.39
41040;BME280;48586;50.122;18.972;2023-02-25T10:47:26;96475.28;;;2.83;81.41
41040;BME280;48586;50.122;18.972;2023-02-25T10:49:36;96482.03;;;2.67;82.97
41040;BME280;48586;50.122;18.972;2023-02-25T10:51:55;96474.25;;;2.72;84.00
41040;BME280;48586;50.122;18.972;2023-02-25T10:54:06;96468.00;;;2.61;84.57
41040;BME280;48586;50.122;18.972;2023-02-25T10:56:10;96476.03;;;2.43;83.72
41040;BME280;48586;50.122;18.972;2023-02-25T10:58:25;96488.38;;;2.31;85.09
41040;BME280;48586;50.122;18.972;2023-02-25T11:00:37;96496.94;;;2.26;87.92
41040;BME280;48586;50.122;18.972;2023-02-25T11:02:44;96493.63;;;2.31;89.33
41040;BME280;48586;50.122;18.972;2023-02-25T11:04:55;96495.78;;;2.22;90.38
41040;BME280;48586;50.122;18.972;2023-02-25T11:07:00;96491.91;;;2.13;90.44
41040;BME280;48586;50.122;18.972;2023-02-25T11:09:32;96489.13;;;2.08;91.33
41040;BME280;48586;50.122;18.972;2023-02-25T11:11:52;96490.50;;;1.98;93.21
41040;BME280;48586;50.122;18.972;2023-02-25T11:14:04;96485.25;;;1.98;93.28
41040;BME280;48586;50.122;18.972;2023-02-25T11:16:12;96483.56;;;2.04;94.99
41040;BME280;48586;50.122;18.972;2023-02-25T11:18:21;96477.75;;;2.14;95.76
41040;BME280;48586;50.122;18.972;2023-02-25T11:20:30;96477.28;;;2.17;95.33
41040;BME280;48586;50.122;18.972;2023-02-25T11:22:37;96467.81;;;2.28;95.18
41040;BME280;48586;50.122;18.972;2023-02-25T11:24:57;96473.75;;;2.35;93.89